Time;durP1;ratioP1;P1;durP2;ratioP2;P2;SDS_P1;SDS_P2;PMS_P1;PMS_P2;Temp;Humidity;BMP_temperature;BMP_pressure;BME280_temperature;BME280_humidity;BME280_pressure;Samples;Min_cycle;Max_cycle;Signal;HPM_P1;HPM_P2
2022/10/22 00:00:45;;;;;;;23.98;4.78;;;;;;;11.24;68.63;101735.38;4951615;28;20027;-79
2022/10/22 00:03:11;;;;;;;53.55;6.47;;;;;;;11.28;68.61;101731.47;4951940;28;20118;-78
2022/10/22 00:05:36;;;;;;;23.55;5.85;;;;;;;11.28;68.06;101730.66;4951909;28;20058;-78
2022/10/22 00:08:02;;;;;;;12.05;4.50;;;;;;;11.31;68.12;101730.44;4951909;28;20031;-79
2022/10/22 00:10:28;;;;;;;14.27;4.78;;;;;;;11.31;68.30;101708.91;4952495;28;20027;-78
2022/10/22 00:12:53;;;;;;;17.40;4.95;;;;;;;11.40;67.85;101716.34;4952081;28;20027;-79
2022/10/22 00:15:19;;;;;;;43.75;6.60;;;;;;;11.41;67.71;101715.38;4952174;28;20542;-78
2022/10/22 00:17:44;;;;;;;36.22;5.88;;;;;;;11.43;67.77;101719.72;4962509;28;20042;-77
2022/10/22 00:20:10;;;;;;;34.38;6.43;;;;;;;11.40;68.54;101714.53;4972401;28;20031;-78
2022/10/22 00:22:35;;;;;;;19.25;4.03;;;;;;;11.43;68.15;101713.44;4971462;28;20042;-79
2022/10/22 00:25:01;;;;;;;13.80;4.45;;;;;;;11.36;68.20;101717.50;4955064;28;20031;-79
2022/10/22 00:27:26;;;;;;;7.43;4.05;;;;;;;11.34;68.26;101706.81;4951810;28;20078;-79
2022/10/22 00:29:52;;;;;;;43.00;6.13;;;;;;;11.36;68.61;101704.06;4951789;28;20047;-78
2022/10/22 00:32:17;;;;;;;40.80;6.57;;;;;;;11.33;68.56;101691.66;4951923;28;20387;-78
2022/10/22 00:34:43;;;;;;;15.32;5.45;;;;;;;11.24;68.39;101665.34;4951748;28;20761;-78
2022/10/22 00:37:08;;;;;;;17.67;4.88;;;;;;;11.34;68.49;101690.66;4951628;28;20023;-78
2022/10/22 00:39:33;;;;;;;21.85;5.13;;;;;;;11.21;68.69;101664.69;4951838;28;20098;-77
2022/10/22 00:41:59;;;;;;;43.83;5.75;;;;;;;11.26;69.01;101678.69;4951052;28;20030;-79
2022/10/22 00:45:01;;;;;;;42.63;5.50;;;;;;;11.30;68.74;101680.22;4951111;28;20031;-78
2022/10/22 00:47:38;;;;;;;26.50;4.90;;;;;;;11.29;69.23;101676.66;4951259;29;20031;-78
2022/10/22 00:50:13;;;;;;;10.40;3.90;;;;;;;11.22;69.06;101669.13;4951155;28;20113;-79
2022/10/22 00:52:38;;;;;;;40.45;5.35;;;;;;;11.27;69.17;101664.28;4951257;28;20031;-78
2022/10/22 00:55:05;;;;;;;27.98;4.78;;;;;;;11.25;69.64;101663.53;4951426;28;20114;-78
2022/10/22 00:57:31;;;;;;;19.85;5.25;;;;;;;11.19;69.52;101645.09;4951152;28;20475;-80
2022/10/22 00:59:57;;;;;;;34.35;5.38;;;;;;;11.36;69.89;101667.22;4952113;28;20031;-78
2022/10/22 01:02:23;;;;;;;35.30;5.63;;;;;;;11.36;69.54;101652.88;4955238;28;20031;-79
2022/10/22 01:04:48;;;;;;;120.38;11.43;;;;;;;11.43;69.08;101665.84;4936386;29;20078;-78
2022/10/22 01:07:20;;;;;;;39.75;6.78;;;;;;;11.47;69.81;101661.06;4954978;28;20050;-78
2022/10/22 01:09:51;;;;;;;37.50;5.93;;;;;;;11.56;69.93;101665.81;4955017;28;20094;-80
2022/10/22 01:12:41;;;;;;;30.45;4.85;;;;;;;11.60;69.71;101658.41;4954612;28;20105;-79
2022/10/22 01:15:45;;;;;;;44.42;5.40;;;;;;;11.59;69.80;101665.63;4955124;29;20045;-78
2022/10/22 01:18:22;;;;;;;12.38;4.05;;;;;;;11.62;68.90;101660.00;4914159;29;20567;-78
2022/10/22 01:21:30;;;;;;;30.38;5.80;;;;;;;11.58;69.39;101657.66;4914120;29;20127;-79
2022/10/22 01:24:01;;;;;;;18.58;4.60;;;;;;;11.51;69.93;101649.13;4840647;29;20037;-78
2022/10/22 01:27:03;;;;;;;53.00;9.45;;;;;;;11.51;69.49;101651.81;4840176;29;20042;-79
2022/10/22 01:29:36;;;;;;;32.53;5.90;;;;;;;11.48;69.43;101641.25;4839644;29;20081;-77
2022/10/22 01:32:08;;;;;;;20.77;5.70;;;;;;;11.44;69.76;101628.94;4859289;29;20034;-79
2022/10/22 01:34:36;;;;;;;;;;;;;;;11.50;69.98;101649.25;4861336;29;20030;-79
2022/10/22 01:37:02;;;;;;;14.35;4.28;;;;;;;11.44;69.97;101645.13;4853740;29;19924;-79
2022/10/22 01:39:30;;;;;;;12.25;4.28;;;;;;;11.38;69.77;101630.25;4839715;29;20160;-78
2022/10/22 01:41:56;;;;;;;33.15;7.28;;;;;;;11.43;69.71;101643.41;4839117;29;20206;-80
2022/10/22 01:44:30;;;;;;;10.65;4.28;;;;;;;11.31;70.15;101612.78;4839454;29;20046;-78
2022/10/22 01:47:27;;;;;;;40.47;5.30;;;;;;;11.46;69.70;101641.38;4839488;29;20076;-80
2022/10/22 01:50:17;;;;;;;37.97;6.15;;;;;;;11.50;69.98;101636.59;4839279;29;20048;-78
2022/10/22 01:53:08;;;;;;;97.28;9.55;;;;;;;11.48;69.65;101635.88;4839123;29;20042;-77
2022/10/22 01:56:21;;;;;;;35.40;5.75;;;;;;;11.48;69.95;101635.88;4798236;29;20053;-79
2022/10/22 01:59:17;;;;;;;16.90;4.03;;;;;;;11.44;69.29;101623.56;4833924;29;20057;-80
2022/10/22 02:02:16;;;;;;;38.42;5.63;;;;;;;11.44;69.38;101634.34;4838720;29;20037;-78
2022/10/22 02:04:50;;;;;;;49.45;5.43;;;;;;;11.27;69.43;101610.41;4838889;29;20038;-79
2022/10/22 02:07:20;;;;;;;87.40;8.35;;;;;;;11.44;69.53;101639.72;4839110;29;20087;-80
2022/10/22 02:09:48;;;;;;;39.13;4.95;;;;;;;11.46;69.13;101644.06;4838516;29;20053;-78
2022/10/22 02:12:17;;;;;;;15.77;4.40;;;;;;;11.43;69.29;101644.28;4837770;29;20522;-79
2022/10/22 02:14:43;;;;;;;24.92;4.35;;;;;;;11.44;69.32;101651.38;4838484;29;20050;-79
2022/10/22 02:17:14;;;;;;;61.58;7.20;;;;;;;11.28;68.61;101628.31;4838224;29;20509;-79
2022/10/22 02:19:43;;;;;;;30.30;5.00;;;;;;;11.45;68.83;101652.25;4838727;29;20188;-78
2022/10/22 02:22:08;;;;;;;45.83;7.47;;;;;;;11.34;68.42;101622.50;4823453;29;20045;-78
2022/10/22 02:24:34;;;;;;;31.70;7.80;;;;;;;11.43;68.06;101627.25;4838320;29;20045;-77
2022/10/22 02:27:15;;;;;;;37.95;6.32;;;;;;;11.46;68.13;101645.91;4838258;29;20166;-78
2022/10/22 02:30:00;;;;;;;26.33;5.68;;;;;;;11.45;68.25;101652.25;4838185;29;20034;-78
2022/10/22 02:32:35;;;;;;;37.70;5.72;;;;;;;11.45;67.79;101652.25;4870810;29;20127;-78
2022/10/22 02:35:02;;;;;;;28.42;5.40;;;;;;;11.36;67.79;101652.88;4935322;29;20036;-79
2022/10/22 02:37:28;;;;;;;21.80;4.53;;;;;;;11.29;67.82;101638.97;4953265;29;20035;-79
2022/10/22 02:39:55;;;;;;;25.63;4.18;;;;;;;11.29;67.54;101646.16;4953202;29;20059;-77
2022/10/22 02:42:22;;;;;;;39.70;5.88;;;;;;;11.26;67.77;101641.00;4953325;29;20039;-78
2022/10/22 02:44:47;;;;;;;23.63;4.88;;;;;;;10.87;67.71;101574.56;4969755;29;20059;-79
2022/10/22 02:47:12;;;;;;;20.05;4.60;;;;;;;11.23;67.66;101633.13;4974261;29;20046;-77
2022/10/22 02:49:38;;;;;;;19.33;4.50;;;;;;;11.17;68.04;101647.00;4971559;29;20036;-79
2022/10/22 02:52:03;;;;;;;22.05;5.53;;;;;;;11.12;67.80;101638.38;4952436;29;20444;-78
2022/10/22 02:54:29;;;;;;;29.17;4.38;;;;;;;11.09;67.94;101628.69;4952879;29;20035;-77
2022/10/22 02:56:54;;;;;;;35.28;6.80;;;;;;;11.04;68.19;101624.59;4952598;28;20031;-78
2022/10/22 02:59:20;;;;;;;25.55;4.20;;;;;;;11.00;67.89;101628.44;4951141;29;20281;-79
2022/10/22 03:01:45;;;;;;;26.00;5.85;;;;;;;10.79;67.89;101593.91;4952467;29;20083;-80
2022/10/22 03:04:10;;;;;;;33.38;4.78;;;;;;;10.99;68.17;101618.63;4952412;29;20519;-79
2022/10/22 03:06:36;;;;;;;14.40;4.15;;;;;;;10.94;67.96;101613.56;4952090;28;20043;-79
2022/10/22 03:09:02;;;;;;;19.42;4.75;;;;;;;11.03;67.33;101628.25;4951992;29;20033;-79
2022/10/22 03:11:27;;;;;;;21.23;3.60;;;;;;;11.13;67.31;101634.72;4952370;29;20028;-78
2022/10/22 03:13:52;;;;;;;17.77;4.03;;;;;;;11.13;67.15;101613.19;4952348;29;20031;-78
2022/10/22 03:16:18;;;;;;;10.93;4.13;;;;;;;11.06;66.69;101603.78;4952698;29;20106;-79
2022/10/22 03:18:43;;;;;;;19.83;5.05;;;;;;;11.29;65.99;101624.63;4952230;29;20118;-80
2022/10/22 03:21:19;;;;;;;19.25;4.00;;;;;;;11.27;66.14;101613.09;4952396;29;20115;-79
2022/10/22 03:23:46;;;;;;;7.35;4.05;;;;;;;11.34;65.84;101623.34;4951212;28;20108;-78
2022/10/22 03:26:13;;;;;;;20.05;4.80;;;;;;;11.31;65.92;101623.53;4952076;29;20031;-78
2022/10/22 03:28:40;;;;;;;68.80;7.30;;;;;;;11.31;65.73;101623.53;4952147;29;20038;-78
2022/10/22 03:31:06;;;;;;;51.45;5.05;;;;;;;11.36;65.44;101609.78;4951753;29;20123;-79
2022/10/22 03:33:31;;;;;;;323.80;18.52;;;;;;;11.42;65.29;101603.97;4951980;29;20109;-80
2022/10/22 03:35:58;;;;;;;46.60;7.53;;;;;;;11.43;65.00;101605.69;4951728;28;20028;-78
2022/10/22 03:38:23;;;;;;;48.58;7.20;;;;;;;11.43;64.83;101600.31;4952170;29;20035;-79
2022/10/22 03:40:49;;;;;;;42.05;8.40;;;;;;;11.43;64.48;101606.56;4951676;29;20031;-78
2022/10/22 03:43:15;;;;;;;49.80;8.18;;;;;;;11.42;64.36;101604.84;4952156;29;20066;-78
2022/10/22 03:45:40;;;;;;;29.73;7.72;;;;;;;11.43;63.86;101606.56;4934132;29;20102;-79
2022/10/22 03:48:06;;;;;;;41.10;7.55;;;;;;;11.21;63.94;101562.38;4952010;29;20475;-79
2022/10/22 03:50:32;;;;;;;32.30;7.75;;;;;;;11.40;64.50;101597.84;4952382;29;20023;-80
2022/10/22 03:52:58;;;;;;;32.38;7.35;;;;;;;11.40;64.43;101604.09;4952265;29;20031;-79
2022/10/22 03:55:24;;;;;;;26.95;7.45;;;;;;;11.39;64.44;101612.25;4951822;29;20122;-78
2022/10/22 03:57:49;;;;;;;128.40;11.23;;;;;;;11.19;63.88;101575.91;4964071;29;20055;-81
2022/10/22 04:00:15;;;;;;;84.10;10.27;;;;;;;11.26;64.29;101579.91;4967664;29;20031;-81
2022/10/22 04:02:40;;;;;;;34.72;8.23;;;;;;;11.40;64.04;101614.00;4958907;28;20034;-79
2022/10/22 04:05:06;;;;;;;168.98;14.85;;;;;;;11.25;64.55;101580.88;4955612;29;20102;-79
2022/10/22 04:07:31;;;;;;;167.05;13.48;;;;;;;11.38;64.02;101603.31;4952423;28;20027;-79
2022/10/22 04:09:57;;;;;;;55.75;7.22;;;;;;;11.15;63.81;101568.16;4952088;28;20023;-78
2022/10/22 04:12:22;;;;;;;54.45;8.48;;;;;;;11.32;64.02;101602.88;4952063;29;20035;-79
2022/10/22 04:14:48;;;;;;;57.05;7.65;;;;;;;11.26;63.94;101605.97;4951787;29;20070;-80
2022/10/22 04:17:14;;;;;;;126.05;13.68;;;;;;;11.25;64.28;101602.41;4951960;29;20043;-79
2022/10/22 04:19:39;;;;;;;111.05;13.88;;;;;;;10.81;64.15;101537.31;4951524;28;20030;-80
2022/10/22 04:22:05;;;;;;;111.88;20.80;;;;;;;11.11;64.15;101607.03;4951782;28;20031;-79
2022/10/22 04:24:31;;;;;;;80.55;18.98;;;;;;;11.08;64.67;101601.84;4951835;29;20078;-79
2022/10/22 04:26:56;;;;;;;112.47;21.33;;;;;;;11.09;64.64;101603.59;4951421;29;20023;-78
2022/10/22 04:29:22;;;;;;;142.35;21.35;;;;;;;11.10;64.94;101602.63;4951842;28;20529;-78
2022/10/22 04:31:48;;;;;;;86.13;17.92;;;;;;;10.89;64.87;101575.31;4951378;28;20755;-77
2022/10/22 04:34:13;;;;;;;90.93;15.02;;;;;;;10.93;64.84;101588.47;4951158;29;20111;-80
2022/10/22 04:36:39;;;;;;;101.13;14.32;;;;;;;11.05;64.73;101599.38;4949622;28;20039;-78
2022/10/22 04:39:04;;;;;;;333.52;27.13;;;;;;;11.08;64.49;101604.53;4951305;28;20042;-78
2022/10/22 04:41:32;;;;;;;149.65;19.02;;;;;;;11.10;64.66;101608.03;4951182;28;20042;-80
2022/10/22 04:43:58;;;;;;;101.40;13.70;;;;;;;11.11;64.49;101604.34;4951304;28;20028;-79
2022/10/22 04:46:27;;;;;;;74.20;13.27;;;;;;;11.00;64.45;101585.38;4950957;28;20789;-79
2022/10/22 04:48:53;;;;;;;83.25;11.80;;;;;;;11.13;64.21;101597.88;4952011;29;20424;-77
2022/10/22 04:51:21;;;;;;;134.40;15.18;;;;;;;10.94;64.34;101575.88;4951090;28;20042;-80
2022/10/22 04:53:46;;;;;;;327.75;23.00;;;;;;;10.89;64.57;101562.72;4950938;28;20036;-81
2022/10/22 04:56:15;;;;;;;168.15;13.30;;;;;;;11.07;64.40;101592.91;4951378;28;20076;-79
2022/10/22 04:58:42;;;;;;;137.27;14.73;;;;;;;11.14;64.68;101587.97;4951201;29;20055;-77
2022/10/22 05:01:13;;;;;;;128.15;14.63;;;;;;;11.15;64.66;101589.72;4951253;28;20038;-79
2022/10/22 05:03:38;;;;;;;107.50;18.30;;;;;;;11.22;64.63;101597.25;4951780;29;20031;-78
2022/10/22 05:06:04;;;;;;;187.60;14.77;;;;;;;11.17;64.43;101590.47;4951936;28;20023;-79
2022/10/22 05:08:29;;;;;;;219.63;18.20;;;;;;;11.32;64.14;101587.56;4951642;28;20078;-79
2022/10/22 05:10:55;;;;;;;172.10;16.25;;;;;;;11.43;64.58;101594.94;4967405;28;20020;-81
2022/10/22 05:13:20;;;;;;;179.25;14.85;;;;;;;11.48;63.69;101596.31;4969353;29;20059;-81
2022/10/22 05:15:46;;;;;;;89.50;12.15;;;;;;;11.53;63.97;101587.06;4964166;29;20113;-78
2022/10/22 05:18:11;;;;;;;52.58;9.48;;;;;;;11.46;63.54;101548.91;4951023;29;20038;-79
2022/10/22 05:20:41;;;;;;;156.10;17.20;;;;;;;11.79;62.92;101586.97;4950946;29;20479;-78
2022/10/22 05:23:07;;;;;;;107.88;11.73;;;;;;;11.88;62.99;101580.06;4950747;28;20023;-79
2022/10/22 05:25:36;;;;;;;70.72;11.07;;;;;;;12.06;62.65;101583.25;4950619;28;20042;-79
2022/10/22 05:28:02;;;;;;;72.53;8.52;;;;;;;12.14;61.92;101578.19;4950707;28;20033;-78
2022/10/22 05:30:27;;;;;;;90.20;8.75;;;;;;;12.12;61.75;101594.47;4950436;29;20035;-78
2022/10/22 05:32:53;;;;;;;135.35;9.23;;;;;;;11.85;60.38;101529.06;4950701;29;20027;-77
2022/10/22 05:35:18;;;;;;;38.97;6.72;;;;;;;12.27;59.60;101577.16;4950796;28;20415;-78
2022/10/22 05:37:43;;;;;;;16.55;5.57;;;;;;;12.54;59.34;101601.25;4950681;29;20038;-77
2022/10/22 05:40:09;;;;;;;50.55;6.68;;;;;;;12.74;59.34;101603.34;4950581;28;20027;-78
2022/10/22 05:42:35;;;;;;;96.82;10.23;;;;;;;12.97;58.72;101610.56;4950073;29;20032;-77
2022/10/22 05:45:00;;;;;;;12.85;5.13;;;;;;;13.17;57.77;101602.81;4950260;28;20038;-80
2022/10/22 05:47:28;;;;;;;9.52;4.90;;;;;;;13.26;56.90;101605.66;4951684;28;20038;-79
2022/10/22 05:49:56;;;;;;;12.48;4.05;;;;;;;13.34;56.50;101591.56;4954171;29;20318;-78
2022/10/22 05:52:22;;;;;;;23.15;5.75;;;;;;;13.58;56.34;101590.50;4953838;29;20027;-78
2022/10/22 05:54:47;;;;;;;14.70;4.30;;;;;;;13.67;55.85;101599.72;4954017;29;20486;-78
2022/10/22 05:57:13;;;;;;;13.48;4.70;;;;;;;13.79;55.25;101595.22;4953493;29;20058;-79
2022/10/22 05:59:38;;;;;;;19.77;5.13;;;;;;;13.65;55.04;101555.75;4953830;29;20055;-79
2022/10/22 06:02:04;;;;;;;8.70;4.30;;;;;;;13.86;54.71;101591.88;4953928;29;20550;-79
2022/10/22 06:04:29;;;;;;;17.50;3.75;;;;;;;13.84;54.36;101580.34;4954034;29;20086;-80
2022/10/22 06:06:55;;;;;;;17.60;4.40;;;;;;;13.92;54.57;101583.28;4955031;29;20027;-87
2022/10/22 06:09:38;;;;;;;20.30;5.13;;;;;;;14.05;53.97;101581.31;4956049;29;20027;-77
2022/10/22 06:12:07;;;;;;;11.32;4.85;;;;;;;14.01;53.85;101587.09;4953985;28;20042;-77
2022/10/22 06:14:33;;;;;;;17.15;3.88;;;;;;;13.96;53.89;101579.34;4954501;29;20428;-78
2022/10/22 06:16:59;;;;;;;30.83;4.40;;;;;;;14.00;53.93;101572.72;4954885;29;20039;-80
2022/10/22 06:19:28;;;;;;;32.83;5.35;;;;;;;14.04;53.97;101560.66;4954807;29;20114;-78
2022/10/22 06:21:54;;;;;;;31.85;4.97;;;;;;;14.11;53.56;101552.91;4959550;29;20053;-80
2022/10/22 06:24:19;;;;;;;98.75;8.23;;;;;;;14.30;53.42;101572.06;4972687;29;20027;-78
2022/10/22 06:26:49;;;;;;;11.48;4.28;;;;;;;14.22;53.28;101533.09;4969427;29;20027;-80
2022/10/22 06:29:14;;;;;;;26.10;5.68;;;;;;;14.50;52.37;101583.97;4959625;28;20150;-79
2022/10/22 06:31:40;;;;;;;60.15;6.88;;;;;;;14.56;51.92;101588.88;4952963;28;20162;-78
2022/10/22 06:34:08;;;;;;;32.03;9.43;;;;;;;14.54;51.95;101580.91;4953523;28;20403;-79
2022/10/22 06:36:35;;;;;;;26.23;5.35;;;;;;;14.67;51.48;101581.63;4952879;28;20037;-79
2022/10/22 06:39:00;;;;;;;14.73;3.70;;;;;;;14.45;51.20;101549.19;4953340;28;20459;-82
2022/10/22 06:41:26;;;;;;;9.13;3.22;;;;;;;14.66;51.12;101581.72;4952656;28;20020;-81
2022/10/22 06:43:52;;;;;;;12.52;3.85;;;;;;;14.68;50.94;101582.44;4953431;28;20504;-80
2022/10/22 06:46:20;;;;;;;12.68;3.42;;;;;;;14.81;51.16;101585.00;4951615;28;20030;-79
2022/10/22 06:48:57;;;;;;;146.20;10.55;;;;;;;14.77;50.62;101578.97;4952686;28;20031;-80
2022/10/22 06:51:22;;;;;;;23.10;3.80;;;;;;;14.82;50.40;101584.00;4951486;28;20110;-86
2022/10/22 06:53:48;;;;;;;12.05;3.65;;;;;;;14.69;50.34;101546.25;4951101;28;20148;-77
2022/10/22 06:56:17;;;;;;;12.95;3.65;;;;;;;14.89;50.63;101579.81;4951440;28;20042;-77
2022/10/22 06:58:49;;;;;;;38.25;4.75;;;;;;;14.89;50.28;101580.66;4950937;28;20058;-77
2022/10/22 07:01:16;;;;;;;29.90;4.80;;;;;;;15.00;50.10;101574.34;4951646;28;20038;-76
2022/10/22 07:03:42;;;;;;;19.42;3.53;;;;;;;14.92;50.11;101572.25;4951526;28;20046;-78
2022/10/22 07:06:10;;;;;;;13.52;4.00;;;;;;;14.95;50.35;101576.59;4951569;28;20027;-77
2022/10/22 07:08:36;;;;;;;23.25;4.07;;;;;;;14.95;50.17;101569.28;4951403;28;20042;-78
2022/10/22 07:11:26;;;;;;;24.30;3.72;;;;;;;14.98;50.47;101544.66;4951202;28;20031;-79
2022/10/22 07:13:54;;;;;;;24.88;4.20;;;;;;;15.11;49.70;101561.59;4950099;29;20023;-77
2022/10/22 07:16:20;;;;;;;18.63;4.05;;;;;;;15.14;50.14;101558.63;4951047;28;20027;-77
2022/10/22 07:18:46;;;;;;;14.57;5.22;;;;;;;15.14;50.15;101555.91;4951100;28;20046;-79
2022/10/22 07:21:14;;;;;;;77.55;6.47;;;;;;;15.17;49.72;101550.22;4951362;28;20023;-78
2022/10/22 07:23:40;;;;;;;18.00;4.05;;;;;;;15.31;49.83;101553.59;4950761;28;20054;-78
2022/10/22 07:26:07;;;;;;;125.93;8.73;;;;;;;15.50;49.55;101548.34;4951249;28;20454;-77
2022/10/22 07:28:37;;;;;;;25.23;4.28;;;;;;;15.58;49.14;101562.06;4951141;28;20035;-76
2022/10/22 07:31:03;;;;;;;10.43;3.92;;;;;;;15.55;48.87;101552.38;4950846;29;20035;-78
2022/10/22 07:33:28;;;;;;;11.40;4.22;;;;;;;15.39;48.58;101540.22;4953789;29;20038;-78
2022/10/22 07:36:04;;;;;;;316.35;20.67;;;;;;;15.57;48.72;101544.94;4973157;29;20062;-77
2022/10/22 07:38:30;;;;;;;39.75;4.72;;;;;;;15.59;48.38;101545.69;4972447;28;20043;-79
2022/10/22 07:40:56;;;;;;;21.33;3.92;;;;;;;15.70;48.67;101544.72;4953384;29;20039;-78
2022/10/22 07:43:22;;;;;;;21.30;3.60;;;;;;;15.73;47.88;101541.75;4950842;29;20041;-76
2022/10/22 07:45:47;;;;;;;15.70;4.43;;;;;;;15.78;47.63;101542.19;4950692;29;20031;-75
2022/10/22 07:48:13;;;;;;;12.77;4.43;;;;;;;15.82;47.42;101540.06;4950227;29;20035;-75
2022/10/22 07:50:38;;;;;;;33.67;4.78;;;;;;;15.93;47.69;101540.81;4947729;29;20094;-76
2022/10/22 07:53:04;;;;;;;14.05;3.45;;;;;;;16.05;47.07;101536.16;4950376;29;20035;-76
2022/10/22 07:55:30;;;;;;;27.98;4.45;;;;;;;16.12;46.61;101526.47;4949974;29;20027;-75
2022/10/22 07:57:55;;;;;;;22.23;3.92;;;;;;;16.07;46.68;101524.19;4949963;29;20734;-76
2022/10/22 08:00:21;;;;;;;30.65;4.13;;;;;;;16.16;46.44;101541.47;4950156;29;20031;-79
2022/10/22 08:02:46;;;;;;;73.57;6.13;;;;;;;16.19;46.40;101531.19;4950665;29;20027;-78
2022/10/22 08:05:15;;;;;;;54.60;4.20;;;;;;;16.18;46.57;101507.75;4950092;29;20038;-80
2022/10/22 08:07:41;;;;;;;75.00;7.60;;;;;;;16.30;46.58;101528.38;4950340;29;20074;-79
2022/10/22 08:10:08;;;;;;;20.63;4.25;;;;;;;16.14;46.22;101494.63;4949873;28;20059;-78
2022/10/22 08:12:34;;;;;;;27.08;3.90;;;;;;;16.25;46.35;101536.06;4950281;29;20031;-77
2022/10/22 08:15:00;;;;;;;38.72;4.40;;;;;;;16.41;46.22;101529.25;4950104;29;20065;-75
2022/10/22 08:17:26;;;;;;;112.75;8.55;;;;;;;16.39;46.55;101533.97;4950198;29;20067;-74
2022/10/22 08:19:52;;;;;;;18.80;3.70;;;;;;;16.59;46.44;101531.16;4949631;28;20481;-77
2022/10/22 08:22:17;;;;;;;20.50;4.10;;;;;;;16.45;46.15;101504.38;4950099;29;20110;-76
2022/10/22 08:24:43;;;;;;;148.07;14.02;;;;;;;16.78;46.00;101527.59;4949754;29;20063;-76
2022/10/22 08:27:08;;;;;;;19.80;3.28;;;;;;;16.92;45.79;101527.16;4948308;28;20028;-75
2022/10/22 08:29:33;;;;;;;45.40;4.95;;;;;;;17.12;44.93;101517.16;4949565;29;20439;-74
2022/10/22 08:32:01;;;;;;;35.42;5.90;;;;;;;17.15;44.98;101509.56;4949462;29;20038;-76
2022/10/22 08:34:27;;;;;;;33.20;4.53;;;;;;;17.26;45.14;101500.38;4948528;29;20110;-79
2022/10/22 08:36:53;;;;;;;23.02;4.72;;;;;;;17.28;45.16;101498.34;4950323;29;20114;-80
2022/10/22 08:39:18;;;;;;;34.80;4.18;;;;;;;17.13;45.13;101492.50;4952179;29;20031;-79
2022/10/22 08:41:55;;;;;;;93.25;7.60;;;;;;;17.28;45.58;101488.34;4950283;29;20126;-78
2022/10/22 08:44:39;;;;;;;30.45;5.18;;;;;;;17.48;44.25;101489.16;4949405;29;20103;-77
2022/10/22 08:47:04;;;;;;;98.22;7.43;;;;;;;17.58;43.14;101491.88;4963410;29;20043;-78
2022/10/22 08:49:36;;;;;;;327.48;24.42;;;;;;;17.57;42.81;101492.88;4965258;29;20031;-77
2022/10/22 08:52:01;;;;;;;17.00;3.83;;;;;;;17.51;42.85;101483.41;4960365;28;20621;-79
2022/10/22 08:54:35;;;;;;;15.88;3.67;;;;;;;17.64;42.64;101466.78;4949659;29;20039;-78
2022/10/22 08:57:22;;;;;;;51.50;5.75;;;;;;;17.85;42.45;101478.28;4949392;29;20051;-77
2022/10/22 09:00:05;;;;;;;19.83;4.50;;;;;;;17.96;41.95;101472.63;4950693;28;20050;-77
2022/10/22 09:02:49;;;;;;;26.63;3.30;;;;;;;18.01;42.15;101469.47;4949529;29;20158;-78
2022/10/22 09:05:32;;;;;;;46.20;5.35;;;;;;;18.13;41.75;101481.84;4950279;29;20077;-77
2022/10/22 09:07:57;;;;;;;86.07;5.70;;;;;;;18.23;41.35;101453.53;4949459;29;20527;-78
2022/10/22 09:10:35;;;;;;;44.63;6.57;;;;;;;18.47;41.02;101466.53;4950003;29;20105;-78
2022/10/22 09:13:01;;;;;;;71.80;6.80;;;;;;;18.51;41.19;101469.84;4949936;28;20042;-78
2022/10/22 09:15:26;;;;;;;28.98;4.72;;;;;;;18.64;41.27;101467.59;4949114;29;20443;-76
2022/10/22 09:18:21;;;;;;;29.77;4.90;;;;;;;18.88;40.73;101465.94;4949599;29;20055;-76
2022/10/22 09:20:57;;;;;;;57.55;6.45;;;;;;;18.78;40.06;101461.56;4927619;29;20050;-75
2022/10/22 09:23:36;;;;;;;34.38;4.53;;;;;;;18.52;40.62;101463.41;4931397;29;20914;-78
2022/10/22 09:26:01;;;;;;;50.45;4.65;;;;;;;18.37;41.23;101453.03;4930884;29;20036;-77
2022/10/22 09:28:27;;;;;;;81.97;8.15;;;;;;;18.38;41.23;101451.97;4931249;29;20039;-76
2022/10/22 09:30:52;;;;;;;30.27;4.50;;;;;;;18.39;41.30;101453.72;4931198;29;20032;-77
2022/10/22 09:33:26;;;;;;;39.45;4.18;;;;;;;18.46;41.57;101443.06;4931068;29;20043;-76
2022/10/22 09:36:02;;;;;;;55.85;5.07;;;;;;;18.75;41.37;101437.38;4915347;29;20036;-77
2022/10/22 09:38:39;;;;;;;18.38;4.47;;;;;;;19.06;40.48;101418.69;4931477;29;20054;-77
2022/10/22 09:41:05;;;;;;;25.27;3.42;;;;;;;19.28;39.64;101423.59;4932200;29;20036;-78
2022/10/22 09:43:31;;;;;;;18.10;4.38;;;;;;;19.32;39.25;101425.84;4932229;29;20412;-77
2022/10/22 09:45:59;;;;;;;35.50;5.03;;;;;;;19.41;38.94;101433.09;4931301;29;20115;-77
2022/10/22 09:48:40;;;;;;;37.97;5.93;;;;;;;19.40;39.33;101434.09;4931848;29;20220;-78
2022/10/22 09:51:15;;;;;;;26.67;4.35;;;;;;;19.61;39.21;101441.88;4932117;29;20042;-79
2022/10/22 09:53:43;;;;;;;17.83;5.43;;;;;;;19.58;39.17;101430.44;4931718;29;20035;-78
2022/10/22 09:56:31;;;;;;;53.63;5.13;;;;;;;19.64;38.67;101427.06;4931605;29;20040;-77
2022/10/22 09:58:57;;;;;;;36.80;5.97;;;;;;;19.67;38.87;101422.13;4901978;29;20052;-76
2022/10/22 10:01:28;;;;;;;38.53;4.72;;;;;;;19.63;39.20;101398.06;4906382;29;20067;-78
2022/10/22 10:04:01;;;;;;;34.33;4.55;;;;;;;19.71;39.36;101409.88;4908113;29;20045;-76
2022/10/22 10:06:32;;;;;;;18.55;4.25;;;;;;;19.85;39.46;101400.16;4893601;29;20032;-76
2022/10/22 10:09:01;;;;;;;134.88;10.65;;;;;;;19.76;39.16;101398.44;4893473;29;20040;-77
2022/10/22 10:11:35;;;;;;;73.28;5.38;;;;;;;19.72;39.14;101399.81;4893522;29;20540;-77
2022/10/22 10:14:39;;;;;;;965.95;80.30;;;;;;;19.64;39.37;101388.84;4893371;29;20520;-78
2022/10/22 10:17:22;;;;;;;100.95;13.63;;;;;;;19.25;44.66;101342.94;4893462;29;20059;-78
2022/10/22 10:20:12;;;;;;;72.65;14.80;;;;;;;19.31;50.11;101407.78;4893575;29;20214;-77
2022/10/22 10:22:37;;;;;;;33.13;6.65;;;;;;;19.27;50.85;101410.97;4877540;29;20037;-77
2022/10/22 10:25:15;;;;;;;26.88;5.07;;;;;;;18.95;52.85;101406.19;4893194;29;20032;-78
2022/10/22 10:27:45;;;;;;;69.07;7.65;;;;;;;18.72;53.38;101394.06;4893258;29;20044;-75
2022/10/22 10:30:20;;;;;;;132.23;9.45;;;;;;;18.66;53.37;101386.53;4893107;29;20136;-76
2022/10/22 10:33:07;;;;;;;129.93;9.45;;;;;;;18.26;54.23;101392.44;4892859;29;20144;-78
2022/10/22 10:35:38;;;;;;;138.60;11.10;;;;;;;18.20;55.01;101387.63;4911067;29;20126;-77
2022/10/22 10:38:18;;;;;;;26.58;5.18;;;;;;;18.21;55.79;101390.22;4952689;28;20061;-78
2022/10/22 10:40:52;;;;;;;25.23;4.65;;;;;;;18.08;56.61;101380.69;4952524;29;20035;-77
2022/10/22 10:43:29;;;;;;;30.23;4.72;;;;;;;17.98;57.79;101383.50;4952386;29;20487;-78
2022/10/22 10:46:00;;;;;;;185.32;13.82;;;;;;;18.11;57.73;101378.53;4953633;29;20054;-77
2022/10/22 10:48:25;;;;;;;24.77;4.90;;;;;;;18.09;57.00;101368.81;4950098;29;20458;-76
2022/10/22 10:51:23;;;;;;;155.40;12.57;;;;;;;18.08;57.70;101351.63;4952499;29;20028;-77
2022/10/22 10:54:00;;;;;;;202.43;12.02;;;;;;;17.98;58.50;101344.56;4911426;29;20055;-77
2022/10/22 10:56:31;;;;;;;50.58;6.00;;;;;;;17.81;58.72;101321.75;4911790;29;20054;-78
2022/10/22 10:59:26;;;;;;;20.95;5.22;;;;;;;17.98;58.69;101330.94;4911267;29;20138;-77
2022/10/22 11:02:12;;;;;;;591.10;40.88;;;;;;;17.93;58.13;101336.84;4911399;29;20036;-76
2022/10/22 11:04:50;;;;;;;79.88;8.00;;;;;;;17.89;58.08;101316.38;4911691;29;20036;-77
2022/10/22 11:07:25;;;;;;;11.95;4.40;;;;;;;17.91;57.89;101314.38;4911535;29;20040;-79
2022/10/22 11:10:18;;;;;;;113.10;9.82;;;;;;;17.80;58.15;101281.94;4911674;29;20039;-77
2022/10/22 11:12:50;;;;;;;57.08;9.02;;;;;;;17.92;58.67;101307.91;4805920;29;20039;-76
2022/10/22 11:15:33;;;;;;;55.13;6.55;;;;;;;18.06;58.44;101315.53;4825192;29;20119;-77
2022/10/22 11:18:11;;;;;;;57.20;6.65;;;;;;;18.12;58.09;101297.72;4810847;29;20038;-77
2022/10/22 11:20:48;;;;;;;45.97;5.45;;;;;;;17.95;57.84;101254.00;4806520;29;20107;-77
2022/10/22 11:23:23;;;;;;;209.38;16.75;;;;;;;18.08;58.05;101277.25;4800640;29;20131;-76
2022/10/22 11:25:49;;;;;;;18.85;4.80;;;;;;;18.09;58.36;101298.88;4799786;29;20095;-76
2022/10/22 11:28:20;;;;;;;34.47;5.70;;;;;;;17.97;59.00;101291.13;4800163;29;20045;-76